Time;durP1;ratioP1;P1;durP2;ratioP2;P2;SDS_P1;SDS_P2;PMS_P1;PMS_P2;Temp;Humidity;BMP_temperature;BMP_pressure;BME280_temperature;BME280_humidity;BME280_pressure;Samples;Min_cycle;Max_cycle;Signal;HPM_P1;HPM_P2
2020/12/04 08:02:32;;;;;;;5.28;1.13;;;;;;;;;;5055658;28;20391;-77
2020/12/04 08:04:57;;;;;;;7.43;1.15;;;;;;;;;;5069567;28;20051;-76
2020/12/04 08:07:27;;;;;;;5.57;1.75;;;;;;;;;;5069691;28;20047;-76
2020/12/04 08:09:52;;;;;;;5.88;0.88;;;;;;;;;;5069914;28;20025;-77
2020/12/04 08:12:19;;;;;;;5.50;0.73;;;;;;;;;;5069523;28;20079;-76
2020/12/04 08:14:55;;;;;;;2.38;0.50;;;;;;;;;;5069140;28;20021;-77
2020/12/04 08:17:21;;;;;;;5.15;1.05;;;;;;;;;;5069339;28;20059;-77
2020/12/04 08:19:47;;;;;;;4.97;0.80;;;;;;;;;;5069474;28;20033;-73
2020/12/04 08:22:12;;;;;;;9.05;2.00;;;;;;;;;;5069242;28;20433;-77
2020/12/04 08:24:39;;;;;;;3.40;1.00;;;;;;;;;;5069167;28;20033;-77
2020/12/04 08:27:05;;;;;;;1.42;0.60;;;;;;;;;;5069177;28;20041;-77
2020/12/04 08:29:30;;;;;;;7.47;1.08;;;;;;;;;;5069056;28;20066;-76
2020/12/04 08:32:19;;;;;;;4.53;1.67;;;;;;;;;;5069225;28;20480;-76
2020/12/04 08:34:44;;;;;;;7.00;1.35;;;;;;;;;;5068474;28;20480;-76
2020/12/04 08:37:11;;;;;;;3.15;0.60;;;;;;;;;;5069098;28;20029;-76
2020/12/04 08:39:41;;;;;;;6.03;1.15;;;;;;;;;;5069336;28;20059;-76
2020/12/04 08:42:15;;;;;;;3.50;0.88;;;;;;;;;;5068290;28;20485;-76
2020/12/04 08:44:40;;;;;;;5.43;0.70;;;;;;;;;;5068951;28;20032;-76
2020/12/04 08:47:06;;;;;;;8.10;2.20;;;;;;;;;;5068540;28;20652;-76
2020/12/04 08:49:31;;;;;;;5.28;0.90;;;;;;;;;;5068786;28;20021;-76
2020/12/04 08:51:56;;;;;;;1.63;0.80;;;;;;;;;;5068573;28;20036;-79
2020/12/04 08:54:21;;;;;;;5.50;0.73;;;;;;;;;;5066984;28;20032;-78
2020/12/04 08:56:54;;;;;;;4.28;0.77;;;;;;;;;;5060137;28;20419;-76
2020/12/04 08:59:23;;;;;;;3.05;0.95;;;;;;;;;;5065746;28;20064;-76
2020/12/04 09:01:48;;;;;;;6.53;0.95;;;;;;;;;;5066456;28;20428;-75
2020/12/04 09:04:14;;;;;;;8.70;2.25;;;;;;;;;;5065628;28;20021;-76
2020/12/04 09:06:39;;;;;;;5.30;1.02;;;;;;;;;;5065712;28;20035;-76
2020/12/04 09:09:04;;;;;;;4.82;0.70;;;;;;;;;;5066190;28;20051;-76
2020/12/04 09:11:32;;;;;;;6.28;2.65;;;;;;;;;;5065969;28;20041;-75
2020/12/04 09:13:58;;;;;;;3.72;0.90;;;;;;;;;;5052530;28;20943;-75
2020/12/04 09:16:23;;;;;;;2.70;0.73;;;;;;;;;;5053411;28;20047;-75
2020/12/04 09:18:48;;;;;;;4.88;0.90;;;;;;;;;;5054203;28;20027;-76
2020/12/04 09:21:14;;;;;;;6.13;0.80;;;;;;;;;;5054750;28;20036;-75
2020/12/04 09:23:39;;;;;;;3.92;0.88;;;;;;;;;;5054009;28;20037;-75
2020/12/04 09:26:05;;;;;;;3.85;0.70;;;;;;;;;;5054390;28;20017;-75
2020/12/04 09:28:30;;;;;;;4.20;1.05;;;;;;;;;;5054397;28;20060;-75
2020/12/04 09:30:57;;;;;;;3.58;0.55;;;;;;;;;;5049187;28;20451;-76
2020/12/04 09:33:23;;;;;;;2.53;1.02;;;;;;;;;;5051789;28;20059;-78
2020/12/04 09:35:48;;;;;;;3.13;0.63;;;;;;;;;;5051728;28;20033;-75
2020/12/04 09:38:13;;;;;;;6.38;1.35;;;;;;;;;;5050738;28;20127;-75
2020/12/04 09:40:39;;;;;;;3.80;0.73;;;;;;;;;;5050290;28;20013;-75
2020/12/04 09:43:04;;;;;;;2.95;0.88;;;;;;;;;;5050262;28;20032;-75
2020/12/04 09:45:29;;;;;;;4.22;1.02;;;;;;;;;;5047763;28;20028;-75
2020/12/04 09:47:55;;;;;;;3.83;0.85;;;;;;;;;;5051016;28;20009;-75
2020/12/04 09:50:20;;;;;;;2.33;0.93;;;;;;;;;;5051024;28;20036;-75
2020/12/04 09:52:46;;;;;;;2.85;0.57;;;;;;;;;;5051104;28;20397;-76
2020/12/04 09:55:12;;;;;;;1.55;0.52;;;;;;;;;;5050057;28;20096;-75
2020/12/04 09:57:37;;;;;;;3.92;0.65;;;;;;;;;;5050531;28;20190;-76
2020/12/04 10:00:06;;;;;;;3.95;1.20;;;;;;;;;;5049921;28;20037;-76
2020/12/04 10:02:32;;;;;;;7.43;0.80;;;;;;;;;;5050370;28;20037;-76
2020/12/04 10:04:57;;;;;;;7.95;1.33;;;;;;;;;;5044715;28;20798;-79
2020/12/04 10:07:22;;;;;;;7.05;0.95;;;;;;;;;;5047408;28;20102;-76
2020/12/04 10:09:48;;;;;;;5.13;1.10;;;;;;;;;;5051795;28;20021;-76
2020/12/04 10:12:13;;;;;;;4.07;0.70;;;;;;;;;;5048248;28;20045;-76
2020/12/04 10:14:41;;;;;;;2.83;1.00;;;;;;;;;;5047306;28;20044;-76
2020/12/04 10:17:08;;;;;;;10.05;1.27;;;;;;;;;;5058793;28;20449;-76
2020/12/04 10:19:33;;;;;;;5.43;0.80;;;;;;;;;;5051941;28;20033;-78
2020/12/04 10:21:58;;;;;;;3.83;1.02;;;;;;;;;;5064468;28;20040;-76
2020/12/04 10:24:24;;;;;;;5.05;1.05;;;;;;;;;;5052312;28;21070;-76
2020/12/04 10:26:50;;;;;;;4.45;0.80;;;;;;;;;;5058348;28;20473;-76
2020/12/04 10:29:16;;;;;;;7.10;1.30;;;;;;;;;;5049740;28;20037;-75
2020/12/04 10:31:42;;;;;;;3.72;0.80;;;;;;;;;;5047221;28;20029;-76
2020/12/04 10:34:07;;;;;;;4.05;1.15;;;;;;;;;;5063863;28;20029;-78
2020/12/04 10:36:35;;;;;;;6.68;0.63;;;;;;;;;;5054374;28;20037;-76
2020/12/04 10:39:00;;;;;;;4.13;0.82;;;;;;;;;;5056456;28;20032;-75
2020/12/04 10:41:30;;;;;;;3.22;0.85;;;;;;;;;;5048388;28;20037;-76
2020/12/04 10:43:55;;;;;;;3.40;0.73;;;;;;;;;;5049336;28;20123;-75
2020/12/04 10:46:20;;;;;;;5.07;0.80;;;;;;;;;;5052744;28;20096;-78
2020/12/04 10:48:46;;;;;;;4.55;0.82;;;;;;;;;;5057827;28;20037;-75
2020/12/04 10:51:11;;;;;;;4.03;0.95;;;;;;;;;;5058286;28;20045;-76
2020/12/04 10:53:36;;;;;;;3.92;1.05;;;;;;;;;;5051526;28;20033;-75
2020/12/04 10:56:02;;;;;;;6.30;1.00;;;;;;;;;;5061986;28;20074;-75
2020/12/04 10:58:27;;;;;;;2.42;0.80;;;;;;;;;;5052302;28;20039;-75
2020/12/04 11:00:52;;;;;;;7.03;1.00;;;;;;;;;;5057107;28;20049;-75
2020/12/04 11:03:39;;;;;;;6.68;1.02;;;;;;;;;;5059223;28;20028;-75
2020/12/04 11:06:05;;;;;;;4.78;1.10;;;;;;;;;;5049848;28;20036;-75
2020/12/04 11:08:30;;;;;;;3.08;0.85;;;;;;;;;;5060124;28;20526;-74
2020/12/04 11:10:55;;;;;;;5.38;1.05;;;;;;;;;;5046665;28;20465;-78
2020/12/04 11:13:21;;;;;;;6.25;0.70;;;;;;;;;;5031131;28;21045;-77
2020/12/04 11:15:46;;;;;;;6.25;1.67;;;;;;;;;;5044913;28;20078;-78
2020/12/04 11:18:11;;;;;;;7.80;0.93;;;;;;;;;;5048296;28;20074;-75
2020/12/04 11:20:37;;;;;;;5.63;1.08;;;;;;;;;;5060303;28;20763;-75
2020/12/04 11:23:02;;;;;;;9.02;1.48;;;;;;;;;;5046053;28;20635;-76
2020/12/04 11:25:27;;;;;;;4.18;0.95;;;;;;;;;;5046221;28;20028;-75
2020/12/04 11:27:53;;;;;;;15.10;1.55;;;;;;;;;;5044812;28;20025;-76
2020/12/04 11:30:20;;;;;;;4.32;1.00;;;;;;;;;;5050400;28;20028;-80
2020/12/04 11:32:46;;;;;;;6.15;1.27;;;;;;;;;;5053990;28;20036;-76
2020/12/04 11:35:12;;;;;;;4.57;1.00;;;;;;;;;;5054382;28;20465;-75
2020/12/04 11:37:38;;;;;;;8.45;1.50;;;;;;;;;;5052876;28;20041;-75
2020/12/04 11:40:04;;;;;;;8.82;1.23;;;;;;;;;;5055916;28;20037;-75
2020/12/04 11:42:30;;;;;;;7.38;1.20;;;;;;;;;;5056892;28;20028;-76
2020/12/04 11:44:55;;;;;;;4.97;1.35;;;;;;;;;;5055483;28;20024;-76
2020/12/04 11:47:21;;;;;;;10.18;2.17;;;;;;;;;;5054203;28;20033;-75
2020/12/04 11:49:46;;;;;;;8.20;1.50;;;;;;;;;;5046201;28;20025;-74
2020/12/04 11:52:12;;;;;;;5.47;1.25;;;;;;;;;;5058135;28;20997;-75
2020/12/04 11:54:37;;;;;;;7.10;1.17;;;;;;;;;;5059846;28;20083;-76
2020/12/04 11:57:02;;;;;;;5.05;1.30;;;;;;;;;;5055959;28;20036;-75
2020/12/04 11:59:27;;;;;;;5.43;1.75;;;;;;;;;;5052654;28;20170;-75
2020/12/04 12:01:55;;;;;;;5.80;1.55;;;;;;;;;;5045300;28;20114;-76
2020/12/04 12:04:20;;;;;;;7.28;1.33;;;;;;;;;;5063009;28;20027;-76
2020/12/04 12:06:46;;;;;;;7.40;1.20;;;;;;;;;;5045974;28;20456;-75
2020/12/04 12:09:11;;;;;;;9.38;1.40;;;;;;;;;;5056504;28;20127;-76
2020/12/04 12:11:36;;;;;;;7.35;1.50;;;;;;;;;;5052098;28;20036;-75
2020/12/04 12:14:02;;;;;;;8.75;2.50;;;;;;;;;;5062359;28;20032;-75
2020/12/04 12:16:27;;;;;;;7.32;2.53;;;;;;;;;;5051572;28;20085;-76
2020/12/04 12:18:52;;;;;;;5.60;1.25;;;;;;;;;;5056585;28;20036;-74
2020/12/04 12:21:18;;;;;;;6.53;1.25;;;;;;;;;;5057991;28;20416;-75
2020/12/04 12:23:44;;;;;;;8.07;1.67;;;;;;;;;;5050544;28;20109;-75
2020/12/04 12:26:13;;;;;;;7.93;1.23;;;;;;;;;;5060960;28;20128;-76
2020/12/04 12:28:38;;;;;;;8.23;1.20;;;;;;;;;;5059237;28;20033;-75
2020/12/04 12:31:04;;;;;;;8.48;1.27;;;;;;;;;;5049247;28;20047;-76
2020/12/04 12:33:30;;;;;;;6.38;1.25;;;;;;;;;;5046180;28;20786;-75
2020/12/04 12:35:55;;;;;;;8.48;1.77;;;;;;;;;;5061550;28;20503;-75
2020/12/04 12:38:21;;;;;;;10.93;1.92;;;;;;;;;;5048380;28;20064;-75
2020/12/04 12:40:46;;;;;;;5.60;1.45;;;;;;;;;;5044702;28;20056;-75
2020/12/04 12:43:11;;;;;;;9.55;1.30;;;;;;;;;;5056284;28;20590;-76
2020/12/04 12:45:38;;;;;;;6.57;1.75;;;;;;;;;;5051022;28;20033;-75
2020/12/04 12:48:04;;;;;;;10.40;2.20;;;;;;;;;;5055968;28;20115;-76
2020/12/04 12:50:29;;;;;;;8.98;1.42;;;;;;;;;;5049558;28;20108;-77
2020/12/04 12:52:54;;;;;;;5.72;1.33;;;;;;;;;;5057984;28;20064;-76
2020/12/04 12:55:20;;;;;;;7.20;1.38;;;;;;;;;;5057103;28;20122;-76
2020/12/04 12:57:46;;;;;;;6.13;1.00;;;;;;;;;;5064631;28;20039;-74
2020/12/04 13:00:11;;;;;;;8.15;1.20;;;;;;;;;;5049972;28;20429;-76
2020/12/04 13:02:36;;;;;;;7.70;1.30;;;;;;;;;;5048613;28;20181;-76
2020/12/04 13:05:30;;;;;;;4.40;1.05;;;;;;;;;;5058997;28;20028;-76
2020/12/04 13:07:47;;;;;;;7.82;1.42;;;;;;;;;;5058883;28;20420;-75
2020/12/04 13:10:13;;;;;;;7.45;1.60;;;;;;;;;;5050669;28;20043;-75
2020/12/04 13:12:38;;;;;;;3.95;0.70;;;;;;;;;;5062210;28;20123;-75
2020/12/04 13:15:03;;;;;;;6.85;1.40;;;;;;;;;;5048309;28;20029;-76
2020/12/04 13:17:29;;;;;;;11.77;1.73;;;;;;;;;;5049117;28;20029;-76
2020/12/04 13:19:54;;;;;;;10.85;1.83;;;;;;;;;;5048372;28;20080;-77
2020/12/04 13:22:19;;;;;;;6.18;1.70;;;;;;;;;;5051999;28;20755;-75
2020/12/04 13:24:45;;;;;;;7.60;1.30;;;;;;;;;;5049040;28;20036;-75
2020/12/04 13:27:10;;;;;;;6.07;1.50;;;;;;;;;;5048578;28;20032;-76
2020/12/04 13:29:36;;;;;;;4.80;1.02;;;;;;;;;;5048498;28;20021;-75
2020/12/04 13:32:01;;;;;;;4.28;0.68;;;;;;;;;;5049514;28;20037;-75
2020/12/04 13:34:27;;;;;;;5.45;0.93;;;;;;;;;;5059270;28;20036;-76
2020/12/04 13:36:52;;;;;;;14.35;1.55;;;;;;;;;;5049491;28;20033;-76
2020/12/04 13:39:19;;;;;;;7.78;1.45;;;;;;;;;;5048418;28;20036;-76
2020/12/04 13:41:44;;;;;;;3.25;0.95;;;;;;;;;;5064669;28;20036;-75
2020/12/04 13:44:10;;;;;;;3.90;1.30;;;;;;;;;;5051896;28;20380;-75
2020/12/04 13:46:36;;;;;;;5.18;1.30;;;;;;;;;;5062580;28;20040;-75
2020/12/04 13:49:05;;;;;;;5.05;1.10;;;;;;;;;;5052465;28;20029;-77
2020/12/04 13:51:34;;;;;;;4.28;1.45;;;;;;;;;;5053142;28;20056;-75
2020/12/04 13:53:59;;;;;;;6.53;1.00;;;;;;;;;;5049723;28;20033;-76
2020/12/04 13:56:24;;;;;;;6.75;1.13;;;;;;;;;;5063604;28;20036;-76
2020/12/04 13:58:50;;;;;;;6.18;1.38;;;;;;;;;;5048293;28;20055;-77
2020/12/04 14:01:19;;;;;;;7.25;1.63;;;;;;;;;;5048073;28;20045;-76
2020/12/04 14:03:45;;;;;;;4.78;1.20;;;;;;;;;;5043826;28;20044;-76
2020/12/04 14:06:12;;;;;;;6.05;0.93;;;;;;;;;;5047300;28;20020;-75
2020/12/04 14:08:37;;;;;;;6.25;1.23;;;;;;;;;;5048441;28;20033;-75
2020/12/04 14:11:02;;;;;;;10.40;2.30;;;;;;;;;;5050544;28;20388;-75
2020/12/04 14:13:28;;;;;;;7.00;1.67;;;;;;;;;;5041515;28;21437;-79
2020/12/04 14:15:53;;;;;;;4.78;0.70;;;;;;;;;;5043287;28;20029;-75
2020/12/04 14:18:18;;;;;;;5.15;1.05;;;;;;;;;;5045558;28;20028;-79
2020/12/04 14:20:44;;;;;;;7.30;1.35;;;;;;;;;;5041987;28;20033;-74
2020/12/04 14:23:09;;;;;;;7.78;1.48;;;;;;;;;;5044148;28;20040;-76
2020/12/04 14:25:34;;;;;;;6.82;1.35;;;;;;;;;;5046650;28;20047;-78
2020/12/04 14:28:00;;;;;;;6.57;1.38;;;;;;;;;;5045672;28;20017;-75
2020/12/04 14:30:25;;;;;;;8.48;1.60;;;;;;;;;;5046158;28;20752;-78
2020/12/04 14:32:50;;;;;;;5.53;1.17;;;;;;;;;;5044457;28;20040;-77
2020/12/04 14:35:16;;;;;;;8.52;1.67;;;;;;;;;;5046165;28;20033;-75
2020/12/04 14:37:41;;;;;;;10.93;1.40;;;;;;;;;;5043146;28;20056;-75
2020/12/04 14:42:51;;;;;;;3.72;1.38;;;;;;;;;;5044635;28;20078;-75
2020/12/04 14:45:16;;;;;;;4.47;1.20;;;;;;;;;;5047148;28;20424;-76
2020/12/04 14:47:41;;;;;;;10.18;1.63;;;;;;;;;;5052671;28;20025;-78
2020/12/04 14:50:07;;;;;;;7.38;1.60;;;;;;;;;;5046701;28;20029;-77
2020/12/04 14:52:33;;;;;;;6.32;1.45;;;;;;;;;;5047092;28;20040;-76
2020/12/04 14:54:59;;;;;;;3.67;1.05;;;;;;;;;;5047330;28;20533;-75
2020/12/04 14:57:24;;;;;;;7.28;1.15;;;;;;;;;;5048457;28;20092;-75
2020/12/04 14:59:51;;;;;;;5.97;1.65;;;;;;;;;;5048528;28;20104;-76
2020/12/04 15:02:16;;;;;;;8.48;1.70;;;;;;;;;;5048021;28;20485;-75
2020/12/04 15:04:42;;;;;;;6.60;1.30;;;;;;;;;;5040335;28;20021;-76
2020/12/04 15:07:07;;;;;;;5.68;1.20;;;;;;;;;;5046939;28;20495;-75
2020/12/04 15:09:32;;;;;;;7.30;1.42;;;;;;;;;;5045774;28;20479;-75
2020/12/04 15:11:57;;;;;;;8.75;1.92;;;;;;;;;;5048779;28;20142;-76
2020/12/04 15:14:23;;;;;;;6.03;2.15;;;;;;;;;;5049093;28;20079;-75
2020/12/04 15:16:48;;;;;;;10.43;2.88;;;;;;;;;;5045802;28;20032;-76
2020/12/04 15:19:14;;;;;;;12.35;3.38;;;;;;;;;;5058786;28;20056;-78
2020/12/04 15:21:39;;;;;;;8.95;2.20;;;;;;;;;;5051212;28;20036;-76
2020/12/04 15:24:04;;;;;;;11.18;2.90;;;;;;;;;;5048788;28;20040;-75
2020/12/04 15:26:29;;;;;;;6.13;2.40;;;;;;;;;;5060725;28;20035;-76
2020/12/04 15:28:55;;;;;;;5.75;1.50;;;;;;;;;;5055795;28;20040;-75
2020/12/04 15:31:20;;;;;;;8.85;1.48;;;;;;;;;;5048738;28;20043;-75
2020/12/04 15:33:45;;;;;;;8.18;2.40;;;;;;;;;;5047524;28;20023;-75
2020/12/04 15:36:11;;;;;;;12.23;2.88;;;;;;;;;;5062714;28;20093;-76
2020/12/04 15:38:38;;;;;;;7.53;2.97;;;;;;;;;;5053189;28;20115;-75
2020/12/04 15:41:04;;;;;;;8.45;2.40;;;;;;;;;;5063622;28;20132;-75
2020/12/04 15:43:29;;;;;;;14.63;4.82;;;;;;;;;;5050974;28;20552;-76
2020/12/04 15:45:54;;;;;;;13.07;3.78;;;;;;;;;;5061960;28;20032;-78
2020/12/04 15:48:20;;;;;;;7.85;1.92;;;;;;;;;;5045090;28;20021;-78
2020/12/04 15:50:45;;;;;;;8.63;2.08;;;;;;;;;;5053257;28;20035;-76
2020/12/04 15:53:11;;;;;;;13.40;1.92;;;;;;;;;;5053915;28;20025;-76
2020/12/04 15:55:36;;;;;;;12.18;1.52;;;;;;;;;;5061131;28;20103;-75
2020/12/04 15:58:02;;;;;;;12.65;2.13;;;;;;;;;;5047166;28;20037;-75
2020/12/04 16:00:27;;;;;;;9.93;1.98;;;;;;;;;;5044031;28;20428;-75
2020/12/04 16:02:53;;;;;;;7.70;2.50;;;;;;;;;;5045852;28;20024;-79
2020/12/04 16:05:18;;;;;;;15.73;2.88;;;;;;;;;;5044024;28;20037;-77
2020/12/04 16:07:43;;;;;;;4.05;2.05;;;;;;;;;;5061988;28;20016;-75
2020/12/04 16:10:09;;;;;;;12.43;3.47;;;;;;;;;;5048593;28;20052;-75
2020/12/04 16:12:35;;;;;;;11.18;3.30;;;;;;;;;;5052069;28;20066;-75
2020/12/04 16:15:00;;;;;;;10.45;4.63;;;;;;;;;;5052801;28;20021;-75
2020/12/04 16:17:26;;;;;;;10.73;4.00;;;;;;;;;;5045535;28;20224;-75
2020/12/04 16:19:51;;;;;;;15.80;3.60;;;;;;;;;;5049003;28;20033;-74
2020/12/04 16:22:16;;;;;;;12.45;3.90;;;;;;;;;;5047936;28;20019;-76
2020/12/04 16:24:43;;;;;;;11.90;3.13;;;;;;;;;;5046341;28;20091;-76
2020/12/04 16:27:09;;;;;;;14.05;4.40;;;;;;;;;;5048390;28;20393;-75
2020/12/04 16:29:34;;;;;;;14.75;5.20;;;;;;;;;;5049946;28;20017;-75
2020/12/04 16:31:59;;;;;;;13.70;5.00;;;;;;;;;;5049915;28;20033;-79
2020/12/04 16:34:24;;;;;;;14.57;5.00;;;;;;;;;;5051018;28;20029;-74
2020/12/04 16:36:50;;;;;;;14.55;4.50;;;;;;;;;;5049612;28;20013;-74
2020/12/04 16:39:15;;;;;;;19.75;5.15;;;;;;;;;;5049082;28;20445;-75
2020/12/04 16:41:46;;;;;;;19.77;7.22;;;;;;;;;;5042265;28;20111;-75
2020/12/04 16:44:12;;;;;;;14.30;4.38;;;;;;;;;;5048027;28;20066;-76
2020/12/04 16:46:38;;;;;;;18.17;6.55;;;;;;;;;;5050589;28;20025;-75
2020/12/04 16:49:04;;;;;;;26.58;12.07;;;;;;;;;;5049683;28;20040;-74
2020/12/04 16:51:30;;;;;;;19.65;8.18;;;;;;;;;;5051114;28;20029;-76
2020/12/04 16:53:55;;;;;;;23.60;10.18;;;;;;;;;;5051395;28;20437;-75
2020/12/04 16:56:21;;;;;;;10.25;5.22;;;;;;;;;;5052198;28;20056;-76
2020/12/04 16:58:47;;;;;;;11.32;4.90;;;;;;;;;;5049931;28;20012;-74
2020/12/04 17:01:12;;;;;;;17.80;7.78;;;;;;;;;;5041316;28;20037;-76
2020/12/04 17:03:38;;;;;;;24.92;8.70;;;;;;;;;;5048331;28;20040;-76
2020/12/04 17:06:03;;;;;;;22.73;5.80;;;;;;;;;;5048960;28;20023;-75
2020/12/04 17:08:29;;;;;;;24.85;7.22;;;;;;;;;;5052247;28;20032;-74
2020/12/04 17:10:54;;;;;;;24.38;8.55;;;;;;;;;;5058501;28;20502;-75
2020/12/04 17:13:19;;;;;;;35.90;12.50;;;;;;;;;;5048534;28;20025;-77
2020/12/04 17:15:44;;;;;;;36.92;13.00;;;;;;;;;;5057328;28;20025;-75
2020/12/04 17:18:10;;;;;;;34.50;11.80;;;;;;;;;;5049378;28;20120;-74
2020/12/04 17:20:35;;;;;;;36.05;12.07;;;;;;;;;;5049476;28;20025;-75
2020/12/04 17:23:00;;;;;;;31.98;10.32;;;;;;;;;;5049296;28;20048;-75
2020/12/04 17:25:26;;;;;;;24.42;8.95;;;;;;;;;;5049289;28;20032;-76
2020/12/04 17:27:52;;;;;;;37.65;8.55;;;;;;;;;;5047870;28;20020;-75
2020/12/04 17:30:18;;;;;;;21.67;5.32;;;;;;;;;;5056814;28;20028;-75
2020/12/04 17:32:44;;;;;;;12.30;2.72;;;;;;;;;;5049192;28;20033;-76
2020/12/04 17:35:09;;;;;;;21.33;7.50;;;;;;;;;;5047871;28;20099;-76
2020/12/04 17:37:34;;;;;;;19.77;4.13;;;;;;;;;;5048907;28;20029;-76
2020/12/04 17:40:00;;;;;;;17.90;5.20;;;;;;;;;;5047939;28;20140;-75
2020/12/04 17:42:25;;;;;;;20.63;5.88;;;;;;;;;;5049857;28;20047;-74
2020/12/04 17:44:51;;;;;;;21.90;8.75;;;;;;;;;;5047846;28;20532;-75
2020/12/04 17:47:19;;;;;;;37.25;12.75;;;;;;;;;;5047561;28;20039;-75
2020/12/04 17:49:45;;;;;;;18.38;5.85;;;;;;;;;;5042984;28;20080;-75
2020/12/04 17:52:11;;;;;;;20.27;7.93;;;;;;;;;;5048122;28;20116;-75
2020/12/04 17:54:36;;;;;;;19.70;8.15;;;;;;;;;;5047541;28;20055;-76
2020/12/04 17:57:02;;;;;;;31.65;12.10;;;;;;;;;;5047691;28;20025;-76
2020/12/04 17:59:27;;;;;;;48.80;18.05;;;;;;;;;;5047625;28;20449;-75
2020/12/04 18:01:53;;;;;;;52.03;20.17;;;;;;;;;;5046837;28;20067;-78
2020/12/04 18:04:18;;;;;;;14.48;5.88;;;;;;;;;;5064652;28;20032;-75
2020/12/04 18:06:47;;;;;;;12.27;5.57;;;;;;;;;;5049067;28;20016;-76
2020/12/04 18:09:13;;;;;;;19.55;5.50;;;;;;;;;;5041306;28;20425;-76
2020/12/04 18:11:38;;;;;;;11.10;2.92;;;;;;;;;;5048996;28;20104;-75
2020/12/04 18:14:03;;;;;;;12.82;2.97;;;;;;;;;;5050037;28;20103;-77
2020/12/04 18:16:29;;;;;;;14.80;2.92;;;;;;;;;;5051354;28;20059;-76
2020/12/04 18:18:55;;;;;;;12.93;4.45;;;;;;;;;;5051170;28;20119;-75
2020/12/04 18:21:20;;;;;;;10.82;3.15;;;;;;;;;;5050476;28;20013;-75
2020/12/04 18:23:45;;;;;;;8.00;2.70;;;;;;;;;;5049357;28;20037;-75
2020/12/04 18:26:11;;;;;;;9.88;2.70;;;;;;;;;;5065987;28;20033;-75
2020/12/04 18:28:36;;;;;;;8.38;2.72;;;;;;;;;;5054855;28;20357;-75
2020/12/04 18:31:01;;;;;;;10.38;3.67;;;;;;;;;;5060256;28;20036;-74
2020/12/04 18:33:27;;;;;;;9.70;2.80;;;;;;;;;;5060645;28;20867;-76
2020/12/04 18:35:52;;;;;;;11.32;2.63;;;;;;;;;;5053121;28;20017;-75
2020/12/04 18:38:17;;;;;;;9.68;2.72;;;;;;;;;;5051029;28;20074;-74
2020/12/04 18:40:42;;;;;;;9.82;3.53;;;;;;;;;;5050914;28;20047;-76
2020/12/04 18:43:08;;;;;;;9.93;4.70;;;;;;;;;;5049553;28;20083;-75
2020/12/04 18:45:33;;;;;;;11.73;3.10;;;;;;;;;;5050364;28;20029;-75
2020/12/04 18:47:58;;;;;;;8.25;2.33;;;;;;;;;;5053123;28;20031;-77
2020/12/04 18:50:24;;;;;;;11.65;3.33;;;;;;;;;;5052180;28;20009;-76
2020/12/04 18:52:49;;;;;;;10.60;2.35;;;;;;;;;;5052353;28;20056;-76
2020/12/04 18:55:15;;;;;;;14.88;2.63;;;;;;;;;;5049427;28;20040;-75
2020/12/04 18:57:40;;;;;;;8.38;2.30;;;;;;;;;;5052345;28;20017;-76
2020/12/04 19:00:06;;;;;;;11.98;2.45;;;;;;;;;;5052539;28;20029;-75
2020/12/04 19:02:35;;;;;;;8.90;2.28;;;;;;;;;;5052302;28;20123;-75
2020/12/04 19:05:00;;;;;;;9.80;2.63;;;;;;;;;;5052479;28;20465;-75
2020/12/04 19:07:25;;;;;;;14.25;2.75;;;;;;;;;;5053201;28;20167;-75
2020/12/04 19:09:51;;;;;;;12.70;3.10;;;;;;;;;;5051843;28;20159;-76
2020/12/04 19:12:16;;;;;;;10.80;2.75;;;;;;;;;;5053194;28;20116;-74
2020/12/04 19:14:41;;;;;;;13.85;3.85;;;;;;;;;;5052701;28;20122;-75
2020/12/04 19:17:07;;;;;;;8.57;2.35;;;;;;;;;;5052362;28;20037;-76
2020/12/04 19:19:32;;;;;;;9.10;1.98;;;;;;;;;;5041073;28;20062;-75
2020/12/04 19:21:57;;;;;;;9.18;2.95;;;;;;;;;;5066179;28;20043;-75
2020/12/04 19:24:23;;;;;;;9.27;1.90;;;;;;;;;;5054528;28;20052;-76
2020/12/04 19:26:49;;;;;;;8.55;2.47;;;;;;;;;;5065708;28;20024;-77
2020/12/04 19:29:15;;;;;;;8.55;2.00;;;;;;;;;;5053871;28;20028;-76
2020/12/04 19:31:40;;;;;;;7.38;1.90;;;;;;;;;;5060489;28;20048;-77
2020/12/04 19:34:06;;;;;;;7.35;2.08;;;;;;;;;;5060131;28;20020;-76
2020/12/04 19:36:31;;;;;;;12.10;3.80;;;;;;;;;;5049522;28;20473;-75
2020/12/04 19:38:56;;;;;;;15.90;3.15;;;;;;;;;;5048340;28;20033;-76
2020/12/04 19:41:22;;;;;;;11.73;3.75;;;;;;;;;;5049066;28;20532;-75
2020/12/04 19:43:47;;;;;;;6.10;2.38;;;;;;;;;;5048117;28;20033;-76
2020/12/04 19:46:12;;;;;;;5.88;2.03;;;;;;;;;;5048971;28;20108;-77
2020/12/04 19:48:38;;;;;;;15.32;2.88;;;;;;;;;;5049116;28;20040;-76
2020/12/04 19:51:03;;;;;;;10.05;4.40;;;;;;;;;;5052854;28;20036;-76
2020/12/04 19:53:29;;;;;;;15.52;4.88;;;;;;;;;;5062127;28;20037;-76
2020/12/04 19:55:57;;;;;;;14.32;6.63;;;;;;;;;;5051791;28;20466;-76
2020/12/04 19:58:23;;;;;;;11.13;4.95;;;;;;;;;;5050611;28;20508;-73
2020/12/04 20:00:48;;;;;;;18.35;5.55;;;;;;;;;;5052393;28;20048;-76
2020/12/04 20:03:14;;;;;;;11.63;3.78;;;;;;;;;;5052208;28;20016;-77
2020/12/04 20:05:40;;;;;;;12.60;5.32;;;;;;;;;;5050633;28;20029;-76
2020/12/04 20:08:05;;;;;;;11.70;4.93;;;;;;;;;;5056259;28;20131;-76
2020/12/04 20:10:30;;;;;;;11.38;4.30;;;;;;;;;;5058276;28;20369;-76
2020/12/04 20:12:55;;;;;;;33.22;19.98;;;;;;;;;;5063307;28;20036;-74
2020/12/04 20:15:22;;;;;;;16.92;8.55;;;;;;;;;;5057263;28;20043;-73
2020/12/04 20:17:47;;;;;;;12.60;6.03;;;;;;;;;;5065346;28;20020;-73
2020/12/04 20:20:12;;;;;;;14.40;5.30;;;;;;;;;;5046847;28;20020;-74
2020/12/04 20:22:38;;;;;;;11.52;4.90;;;;;;;;;;5041266;28;20039;-76
2020/12/04 20:25:03;;;;;;;14.23;4.90;;;;;;;;;;5050732;28;20027;-76
2020/12/04 20:27:28;;;;;;;14.95;5.07;;;;;;;;;;5047917;28;20078;-75
2020/12/04 20:29:54;;;;;;;9.43;4.07;;;;;;;;;;5049713;28;20416;-76
2020/12/04 20:32:19;;;;;;;10.05;4.78;;;;;;;;;;5044760;28;20028;-75
2020/12/04 20:34:45;;;;;;;11.63;4.20;;;;;;;;;;5051107;28;20373;-76
2020/12/04 20:37:10;;;;;;;11.57;4.40;;;;;;;;;;5050481;28;20427;-76
2020/12/04 20:39:35;;;;;;;17.77;6.15;;;;;;;;;;5049992;28;20017;-76
2020/12/04 20:42:01;;;;;;;10.07;4.18;;;;;;;;;;5052426;28;20113;-76
2020/12/04 20:44:26;;;;;;;7.00;3.30;;;;;;;;;;5050290;28;20041;-75
2020/12/04 20:46:52;;;;;;;6.47;3.03;;;;;;;;;;5050608;28;20067;-76
2020/12/04 20:49:18;;;;;;;9.70;2.63;;;;;;;;;;5045560;28;20029;-77
2020/12/04 20:51:46;;;;;;;8.88;3.20;;;;;;;;;;5042673;28;20099;-76
2020/12/04 20:54:12;;;;;;;10.73;2.42;;;;;;;;;;5047028;28;20120;-76
2020/12/04 20:56:37;;;;;;;4.63;2.13;;;;;;;;;;5053270;28;20132;-76
2020/12/04 20:59:03;;;;;;;5.60;2.22;;;;;;;;;;5054762;28;20032;-76
2020/12/04 21:01:28;;;;;;;6.85;3.47;;;;;;;;;;5047769;28;20079;-76
2020/12/04 21:03:54;;;;;;;9.32;4.65;;;;;;;;;;5055958;28;20037;-76
2020/12/04 21:06:19;;;;;;;6.75;2.30;;;;;;;;;;5058510;28;20055;-76
2020/12/04 21:08:44;;;;;;;8.60;4.38;;;;;;;;;;5057842;28;20029;-77
2020/12/04 21:11:10;;;;;;;6.22;3.28;;;;;;;;;;5049138;28;20037;-75
2020/12/04 21:13:35;;;;;;;9.50;3.60;;;;;;;;;;5035823;28;20135;-76
2020/12/04 21:16:00;;;;;;;8.80;3.72;;;;;;;;;;5049959;28;20102;-76
2020/12/04 21:18:28;;;;;;;12.80;4.47;;;;;;;;;;5048668;28;20029;-76
2020/12/04 21:20:53;;;;;;;5.35;2.80;;;;;;;;;;5047842;28;20040;-76
2020/12/04 21:23:19;;;;;;;5.90;2.97;;;;;;;;;;5056463;28;20366;-76
2020/12/04 21:25:44;;;;;;;6.40;2.42;;;;;;;;;;5049358;28;20036;-77
2020/12/04 21:28:10;;;;;;;6.32;3.33;;;;;;;;;;5051626;28;20052;-76
2020/12/04 21:30:35;;;;;;;6.85;3.17;;;;;;;;;;5051014;28;20814;-76
2020/12/04 21:33:00;;;;;;;5.03;2.38;;;;;;;;;;5051535;28;20101;-76
2020/12/04 21:35:26;;;;;;;5.65;1.95;;;;;;;;;;5052224;28;20500;-77
2020/12/04 21:37:51;;;;;;;4.82;1.88;;;;;;;;;;5059156;28;20085;-76
2020/12/04 21:40:17;;;;;;;6.85;1.92;;;;;;;;;;5053260;28;20107;-76
2020/12/04 21:42:42;;;;;;;4.88;1.95;;;;;;;;;;5055982;28;20037;-77
2020/12/04 21:45:07;;;;;;;6.13;2.00;;;;;;;;;;5052182;28;20090;-77
2020/12/04 21:47:33;;;;;;;5.72;2.60;;;;;;;;;;5059645;28;20037;-76
2020/12/04 21:49:58;;;;;;;3.95;1.30;;;;;;;;;;5060053;28;20036;-75
2020/12/04 21:52:23;;;;;;;2.67;1.20;;;;;;;;;;5051707;28;20389;-76
2020/12/04 21:54:49;;;;;;;3.50;1.25;;;;;;;;;;5039081;28;21403;-76
2020/12/04 21:57:14;;;;;;;5.50;1.70;;;;;;;;;;5046985;28;20443;-76
2020/12/04 21:59:39;;;;;;;7.32;2.30;;;;;;;;;;5047295;28;20050;-76
2020/12/04 22:02:05;;;;;;;6.88;2.67;;;;;;;;;;5047049;28;20054;-76
2020/12/04 22:04:32;;;;;;;8.32;3.13;;;;;;;;;;5046118;28;20061;-76
2020/12/04 22:06:57;;;;;;;8.25;3.05;;;;;;;;;;5045762;28;20649;-76
2020/12/04 22:09:23;;;;;;;10.05;4.40;;;;;;;;;;5047376;28;20033;-77
2020/12/04 22:11:49;;;;;;;10.20;3.97;;;;;;;;;;5055084;28;20698;-76
2020/12/04 22:14:14;;;;;;;10.13;3.15;;;;;;;;;;5060571;28;20024;-76
2020/12/04 22:16:39;;;;;;;8.82;2.25;;;;;;;;;;5047073;28;20033;-77
2020/12/04 22:19:05;;;;;;;14.27;3.35;;;;;;;;;;5064578;28;20509;-76
2020/12/04 22:21:30;;;;;;;6.45;3.10;;;;;;;;;;5053681;28;20410;-76
2020/12/04 22:23:56;;;;;;;7.20;2.05;;;;;;;;;;5055348;28;20056;-77
2020/12/04 22:26:22;;;;;;;6.10;2.50;;;;;;;;;;5048222;28;20135;-75
2020/12/04 22:28:49;;;;;;;8.13;1.90;;;;;;;;;;5048552;28;20767;-76
2020/12/04 22:31:15;;;;;;;5.22;2.17;;;;;;;;;;5049270;28;20033;-76
2020/12/04 22:33:40;;;;;;;5.55;1.77;;;;;;;;;;5052082;28;20036;-76